Time,TemperatureF,DewpointF,PressureIn,WindDirection,WindDirectionDegrees,WindSpeedMPH,WindSpeedGustMPH,Humidity,HourlyPrecipIn,Conditions,Clouds,dailyrainin,SoftwareType,DateUTC
2013-04-18 00:03:00,74.0,66.0,29.76,SE,143,6.0,17.0,75,0.00,,,0.10,,2013-04-18 04:03:00,
2013-04-18 00:13:00,74.0,66.0,29.76,SE,143,6.0,17.0,75,0.00,,,0.10,,2013-04-18 04:13:00,
2013-04-18 00:23:00,74.0,65.0,29.75,South,176,7.0,14.0,74,-99.99,,,-99.99,,2013-04-18 04:23:00,
2013-04-18 00:33:00,74.0,65.0,29.75,South,176,7.0,14.0,74,-99.99,,,-99.99,,2013-04-18 04:33:00,
2013-04-18 00:43:00,74.0,65.0,29.75,South,176,7.0,14.0,74,-99.99,,,-99.99,,2013-04-18 04:43:00,
2013-04-18 00:53:00,74.0,65.0,29.75,South,176,7.0,14.0,74,-99.99,,,-99.99,,2013-04-18 04:53:00,
2013-04-18 01:02:00,74.0,65.0,29.75,South,176,7.0,14.0,74,-99.99,,,-99.99,,2013-04-18 05:02:00,
2013-04-18 01:42:00,73.0,64.0,29.71,SSE,157,8.0,22.0,74,0.00,,,0.10,,2013-04-18 05:42:00,
2013-04-18 01:52:00,73.0,64.0,29.71,SSE,157,8.0,22.0,74,0.00,,,0.10,,2013-04-18 05:52:00,
2013-04-18 02:02:00,73.0,64.0,29.71,SSE,157,8.0,22.0,74,0.00,,,0.10,,2013-04-18 06:02:00,
2013-04-18 02:12:00,73.0,65.0,29.69,SSE,167,9.0,16.0,75,0.00,,,0.10,,2013-04-18 06:12:00,
2013-04-18 02:22:00,73.0,65.0,29.69,SSE,167,9.0,16.0,75,0.00,,,0.10,,2013-04-18 06:22:00,
2013-04-18 02:32:00,73.0,65.0,29.69,SSE,167,9.0,16.0,75,0.00,,,0.10,,2013-04-18 06:32:00,
2013-04-18 02:42:00,73.0,65.0,29.68,SE,146,8.0,18.0,76,0.00,,,0.10,,2013-04-18 06:42:00,
2013-04-18 02:52:00,73.0,65.0,29.68,SE,146,8.0,18.0,76,0.00,,,0.10,,2013-04-18 06:52:00,
2013-04-18 03:02:00,73.0,65.0,29.68,SE,146,8.0,18.0,76,0.00,,,0.10,,2013-04-18 07:02:00,
2013-04-18 03:12:00,71.0,64.0,29.67,SSE,165,8.0,19.0,78,0.00,,,0.08,,2013-04-18 07:12:00,
2013-04-18 03:22:00,71.0,64.0,29.67,SSE,165,8.0,19.0,78,0.00,,,0.08,,2013-04-18 07:22:00,
2013-04-18 03:32:00,71.0,64.0,29.67,SSE,165,8.0,19.0,78,0.00,,,0.08,,2013-04-18 07:32:00,
2013-04-18 03:42:00,71.0,65.0,29.67,SSE,160,7.0,19.0,80,0.00,,,0.08,,2013-04-18 07:42:00,
2013-04-18 03:52:00,71.0,65.0,29.67,SSE,160,7.0,19.0,80,0.00,,,0.08,,2013-04-18 07:52:00,
2013-04-18 04:02:00,71.0,65.0,29.67,SSE,160,7.0,19.0,80,0.00,,,0.08,,2013-04-18 08:02:00,
2013-04-18 04:12:00,71.0,65.0,29.67,SSE,160,7.0,19.0,80,0.00,,,0.08,,2013-04-18 08:12:00,
2013-04-18 04:22:00,71.0,65.0,29.67,SSE,160,7.0,19.0,80,0.00,,,0.08,,2013-04-18 08:22:00,
2013-04-18 04:32:00,71.0,65.0,29.67,SSE,160,7.0,19.0,80,0.00,,,0.08,,2013-04-18 08:32:00,
2013-04-18 04:42:00,71.0,65.0,29.65,South,191,5.0,15.0,80,0.00,,,0.04,,2013-04-18 08:42:00,
2013-04-18 04:52:00,71.0,65.0,29.65,South,191,5.0,15.0,80,0.00,,,0.04,,2013-04-18 08:52:00,
2013-04-18 05:02:00,71.0,65.0,29.65,South,191,5.0,15.0,80,0.00,,,0.04,,2013-04-18 09:02:00,
2013-04-18 05:12:00,71.0,65.0,29.64,SSE,159,7.0,17.0,80,0.00,,,0.03,,2013-04-18 09:12:00,
2013-04-18 05:22:00,71.0,65.0,29.64,SSE,159,7.0,17.0,80,0.00,,,0.03,,2013-04-18 09:22:00,
2013-04-18 05:32:00,71.0,65.0,29.64,SSE,159,7.0,17.0,80,0.00,,,0.03,,2013-04-18 09:32:00,
2013-04-18 05:43:00,71.0,65.0,29.63,SE,144,8.0,16.0,81,0.00,,,0.03,,2013-04-18 09:43:00,
2013-04-18 05:53:00,71.0,65.0,29.63,SE,144,8.0,16.0,81,0.00,,,0.03,,2013-04-18 09:53:00,
2013-04-18 06:03:00,71.0,65.0,29.63,SE,144,8.0,16.0,81,0.00,,,0.03,,2013-04-18 10:03:00,
2013-04-18 06:12:00,71.0,65.0,29.63,SE,144,8.0,16.0,81,0.00,,,0.03,,2013-04-18 10:12:00,
2013-04-18 06:23:00,71.0,65.0,29.62,SSE,153,8.0,17.0,81,0.00,,,0.01,,2013-04-18 10:23:00,
2013-04-18 06:32:00,71.0,65.0,29.62,SSE,153,8.0,17.0,81,0.00,,,0.01,,2013-04-18 10:32:00,
2013-04-18 06:42:00,71.0,65.0,29.62,SSE,153,8.0,17.0,81,0.00,,,0.01,,2013-04-18 10:42:00,
2013-04-18 06:52:00,72.0,65.0,29.59,South,175,10.0,21.0,80,0.00,,,0.01,,2013-04-18 10:52:00,
2013-04-18 07:02:00,72.0,65.0,29.59,South,175,10.0,21.0,80,0.00,,,0.01,,2013-04-18 11:02:00,
2013-04-18 07:12:00,72.0,65.0,29.59,South,175,10.0,21.0,80,0.00,,,0.01,,2013-04-18 11:12:00,
2013-04-18 07:22:00,72.0,65.0,29.59,South,175,10.0,21.0,80,0.00,,,0.01,,2013-04-18 11:22:00,
2013-04-18 07:32:00,72.0,65.0,29.59,South,175,10.0,21.0,80,0.00,,,0.01,,2013-04-18 11:32:00,
2013-04-18 07:52:00,72.0,65.0,29.60,SSW,193,9.0,18.0,79,0.00,,,0.00,,2013-04-18 11:52:00,
2013-04-18 08:02:00,72.0,65.0,29.60,SSW,193,9.0,18.0,79,0.00,,,0.00,,2013-04-18 12:02:00,
2013-04-18 08:12:00,72.0,65.0,29.62,South,188,9.0,21.0,79,0.00,,,0.00,,2013-04-18 12:12:00,
2013-04-18 08:22:00,72.0,65.0,29.62,South,188,9.0,21.0,79,0.00,,,0.00,,2013-04-18 12:22:00,
2013-04-18 08:32:00,72.0,65.0,29.62,South,188,9.0,21.0,79,0.00,,,0.00,,2013-04-18 12:32:00,
2013-04-18 08:42:00,72.0,65.0,29.62,South,188,9.0,21.0,79,0.00,,,0.00,,2013-04-18 12:42:00,
2013-04-18 08:52:00,72.0,65.0,29.62,South,191,10.0,23.0,79,0.00,,,0.00,,2013-04-18 12:52:00,
2013-04-18 09:02:00,72.0,65.0,29.62,South,191,10.0,23.0,79,0.00,,,0.00,,2013-04-18 13:02:00,
2013-04-18 09:12:00,71.0,62.0,29.69,West,276,12.0,22.0,73,0.00,,,0.00,,2013-04-18 13:12:00,
2013-04-18 09:22:00,71.0,62.0,29.69,West,276,12.0,22.0,73,0.00,,,0.00,,2013-04-18 13:22:00,
2013-04-18 09:32:00,71.0,62.0,29.69,West,276,12.0,22.0,73,0.00,,,0.00,,2013-04-18 13:32:00,
2013-04-18 09:42:00,71.0,62.0,29.69,West,276,12.0,22.0,73,0.00,,,0.00,,2013-04-18 13:42:00,
2013-04-18 09:53:00,71.0,62.0,29.69,West,276,12.0,22.0,73,0.00,,,0.00,,2013-04-18 13:53:00,
2013-04-18 10:02:00,71.0,62.0,29.69,West,276,12.0,22.0,73,0.00,,,0.00,,2013-04-18 14:02:00,
2013-04-18 10:13:00,61.0,59.0,29.67,SW,231,0.0,5.0,93,0.53,,,0.53,,2013-04-18 14:13:00,
2013-04-18 10:22:00,61.0,59.0,29.67,SW,231,0.0,5.0,93,0.53,,,0.53,,2013-04-18 14:22:00,
2013-04-18 10:33:00,61.0,59.0,29.67,SW,231,0.0,5.0,93,0.53,,,0.53,,2013-04-18 14:33:00,
2013-04-18 10:43:00,61.0,59.0,29.68,SSE,163,3.0,7.0,93,0.15,,,0.56,,2013-04-18 14:43:00,
2013-04-18 10:52:00,61.0,59.0,29.68,SSE,163,3.0,7.0,93,0.15,,,0.56,,2013-04-18 14:52:00,
2013-04-18 11:02:00,61.0,59.0,29.68,SSE,163,3.0,7.0,93,0.15,,,0.56,,2013-04-18 15:02:00,
2013-04-18 11:12:00,61.0,59.0,29.68,SSE,163,3.0,7.0,93,0.15,,,0.56,,2013-04-18 15:12:00,
2013-04-18 11:22:00,61.0,59.0,29.71,SSE,153,1.0,4.0,94,0.06,,,0.60,,2013-04-18 15:22:00,
2013-04-18 11:33:00,61.0,59.0,29.71,SSE,153,1.0,4.0,94,0.06,,,0.60,,2013-04-18 15:33:00,
2013-04-18 11:43:00,61.0,59.0,29.68,SSE,153,3.0,6.0,94,0.10,,,0.66,,2013-04-18 15:43:00,
2013-04-18 11:53:00,61.0,59.0,29.68,SSE,153,3.0,6.0,94,0.10,,,0.66,,2013-04-18 15:53:00,
2013-04-18 12:03:00,61.0,59.0,29.68,SSE,153,3.0,6.0,94,0.10,,,0.66,,2013-04-18 16:03:00,
2013-04-18 12:13:00,61.0,59.0,29.68,SE,137,5.0,9.0,94,0.14,,,0.74,,2013-04-18 16:13:00,
2013-04-18 12:23:00,61.0,59.0,29.68,SE,137,5.0,9.0,94,0.14,,,0.74,,2013-04-18 16:23:00,
2013-04-18 12:33:00,61.0,59.0,29.68,SE,137,5.0,9.0,94,0.14,,,0.74,,2013-04-18 16:33:00,
2013-04-18 12:43:00,61.0,59.0,29.69,SE,125,6.0,10.0,94,0.20,,,0.86,,2013-04-18 16:43:00,
2013-04-18 12:53:00,61.0,59.0,29.69,SE,125,6.0,10.0,94,0.20,,,0.86,,2013-04-18 16:53:00,
2013-04-18 13:02:00,61.0,59.0,29.69,SE,125,6.0,10.0,94,0.20,,,0.86,,2013-04-18 17:02:00,
2013-04-18 13:12:00,61.0,59.0,29.69,SE,141,4.0,9.0,94,0.36,,,1.10,,2013-04-18 17:12:00,
2013-04-18 13:22:00,61.0,59.0,29.69,SE,141,4.0,9.0,94,0.36,,,1.10,,2013-04-18 17:22:00,
2013-04-18 13:33:00,61.0,59.0,29.69,SE,141,4.0,9.0,94,0.36,,,1.10,,2013-04-18 17:33:00,
2013-04-18 13:43:00,60.0,58.0,29.66,SSE,163,4.0,6.0,94,0.36,,,1.22,,2013-04-18 17:43:00,
2013-04-18 13:52:00,60.0,58.0,29.66,SSE,163,4.0,6.0,94,0.36,,,1.22,,2013-04-18 17:52:00,
2013-04-18 14:02:00,60.0,58.0,29.66,SSE,163,4.0,6.0,94,0.36,,,1.22,,2013-04-18 18:02:00,
2013-04-18 14:12:00,60.0,58.0,29.67,ESE,111,2.0,10.0,94,0.44,,,1.55,,2013-04-18 18:12:00,
2013-04-18 14:22:00,60.0,58.0,29.67,ESE,111,2.0,10.0,94,0.44,,,1.55,,2013-04-18 18:22:00,
2013-04-18 14:32:00,60.0,58.0,29.67,ESE,111,2.0,10.0,94,0.44,,,1.55,,2013-04-18 18:32:00,
2013-04-18 14:43:00,60.0,58.0,29.67,ESE,111,2.0,10.0,94,0.44,,,1.55,,2013-04-18 18:43:00,
2013-04-18 14:52:00,60.0,58.0,29.67,ESE,111,2.0,10.0,94,0.44,,,1.55,,2013-04-18 18:52:00,
2013-04-18 15:02:00,60.0,58.0,29.67,ESE,111,2.0,10.0,94,0.44,,,1.55,,2013-04-18 19:02:00,
2013-04-18 15:22:00,61.0,60.0,29.65,SE,127,2.0,7.0,95,0.09,,,1.64,,2013-04-18 19:22:00,
2013-04-18 15:33:00,61.0,60.0,29.65,SE,127,2.0,7.0,95,0.09,,,1.64,,2013-04-18 19:33:00,
2013-04-18 15:42:00,61.0,60.0,29.65,SE,127,2.0,7.0,95,0.09,,,1.64,,2013-04-18 19:42:00,
2013-04-18 15:53:00,61.0,60.0,29.64,SSE,148,3.0,7.0,95,0.09,,,1.68,,2013-04-18 19:53:00,
2013-04-18 16:02:00,61.0,60.0,29.64,SSE,148,3.0,7.0,95,0.09,,,1.68,,2013-04-18 20:02:00,
2013-04-18 16:12:00,61.0,60.0,29.64,SSE,148,3.0,7.0,95,0.09,,,1.68,,2013-04-18 20:12:00,
2013-04-18 16:22:00,61.0,60.0,29.64,SSE,148,3.0,7.0,95,0.09,,,1.68,,2013-04-18 20:22:00,
2013-04-18 16:32:00,61.0,60.0,29.64,SSE,148,3.0,7.0,95,0.09,,,1.68,,2013-04-18 20:32:00,
2013-04-18 17:12:00,62.0,61.0,29.61,SSE,159,6.0,13.0,95,0.14,,,1.86,,2013-04-18 21:12:00,
2013-04-18 17:22:00,62.0,61.0,29.61,SSE,159,6.0,13.0,95,0.14,,,1.86,,2013-04-18 21:22:00,
2013-04-18 17:33:00,62.0,61.0,29.61,SSE,159,6.0,13.0,95,0.14,,,1.86,,2013-04-18 21:33:00,
2013-04-18 17:43:00,62.0,61.0,29.60,SSE,156,5.0,12.0,95,0.08,,,1.88,,2013-04-18 21:43:00,
2013-04-18 17:53:00,62.0,61.0,29.60,SSE,156,5.0,12.0,95,0.08,,,1.88,,2013-04-18 21:53:00,
2013-04-18 18:02:00,62.0,61.0,29.60,SSE,156,5.0,12.0,95,0.08,,,1.88,,2013-04-18 22:02:00,
2013-04-18 18:13:00,62.0,61.0,29.58,SSE,158,7.0,13.0,95,0.08,,,1.94,,2013-04-18 22:13:00,
2013-04-18 18:22:00,62.0,61.0,29.58,SSE,158,7.0,13.0,95,0.08,,,1.94,,2013-04-18 22:22:00,
2013-04-18 18:32:00,62.0,61.0,29.58,SSE,158,7.0,13.0,95,0.08,,,1.94,,2013-04-18 22:32:00,
2013-04-18 18:42:00,62.0,61.0,29.56,SSE,148,3.0,9.0,95,0.10,,,1.98,,2013-04-18 22:42:00,
2013-04-18 18:52:00,62.0,61.0,29.56,SSE,148,3.0,9.0,95,0.10,,,1.98,,2013-04-18 22:52:00,
2013-04-18 19:03:00,62.0,61.0,29.56,SSE,148,3.0,9.0,95,0.10,,,1.98,,2013-04-18 23:03:00,
2013-04-18 19:11:00,62.0,61.0,29.56,SSE,148,3.0,9.0,95,0.10,,,1.98,,2013-04-18 23:11:00,
2013-04-18 19:21:00,62.0,61.0,29.56,SSE,148,3.0,9.0,95,0.10,,,1.98,,2013-04-18 23:21:00,
2013-04-18 19:32:00,62.0,61.0,29.56,SSE,148,3.0,9.0,95,0.10,,,1.98,,2013-04-18 23:32:00,
2013-04-18 19:42:00,51.0,49.0,29.62,WSW,237,7.0,18.0,92,0.15,,,2.13,,2013-04-18 23:42:00,
2013-04-18 19:52:00,51.0,49.0,29.62,WSW,237,7.0,18.0,92,0.15,,,2.13,,2013-04-18 23:52:00,
2013-04-18 20:01:00,51.0,49.0,29.62,WSW,237,7.0,18.0,92,0.15,,,2.13,,2013-04-19 00:01:00,
2013-04-18 20:12:00,51.0,49.0,29.62,WSW,237,7.0,18.0,92,0.15,,,2.13,,2013-04-19 00:12:00,
2013-04-18 20:21:00,51.0,49.0,29.62,WSW,237,7.0,18.0,92,0.15,,,2.13,,2013-04-19 00:21:00,
2013-04-18 20:32:00,51.0,49.0,29.62,WSW,237,7.0,18.0,92,0.15,,,2.13,,2013-04-19 00:32:00,
2013-04-18 20:42:00,46.0,44.0,29.70,West,259,9.0,23.0,91,0.10,,,2.23,,2013-04-19 00:42:00,
2013-04-18 20:52:00,46.0,44.0,29.70,West,259,9.0,23.0,91,0.10,,,2.23,,2013-04-19 00:52:00,
2013-04-18 21:01:00,46.0,44.0,29.70,West,259,9.0,23.0,91,0.10,,,2.23,,2013-04-19 01:01:00,
2013-04-18 21:11:00,46.0,44.0,29.68,SW,232,7.0,16.0,91,0.14,,,2.30,,2013-04-19 01:11:00,
2013-04-18 21:21:00,46.0,44.0,29.68,SW,232,7.0,16.0,91,0.14,,,2.30,,2013-04-19 01:21:00,
2013-04-18 21:31:00,46.0,44.0,29.68,SW,232,7.0,16.0,91,0.14,,,2.30,,2013-04-19 01:31:00,
2013-04-18 21:42:00,45.0,42.0,29.68,WSW,258,8.0,18.0,90,0.12,,,2.36,,2013-04-19 01:42:00,
2013-04-18 21:52:00,45.0,42.0,29.68,WSW,258,8.0,18.0,90,0.12,,,2.36,,2013-04-19 01:52:00,
2013-04-18 22:01:00,45.0,42.0,29.68,WSW,258,8.0,18.0,90,0.12,,,2.36,,2013-04-19 02:01:00,
2013-04-18 22:11:00,45.0,42.0,29.68,WSW,258,8.0,18.0,90,0.12,,,2.36,,2013-04-19 02:11:00,
2013-04-18 22:21:00,45.0,42.0,29.68,WSW,258,8.0,18.0,90,0.12,,,2.36,,2013-04-19 02:21:00,
2013-04-18 22:32:00,45.0,42.0,29.68,WSW,258,8.0,18.0,90,0.12,,,2.36,,2013-04-19 02:32:00,
2013-04-18 22:42:00,45.0,42.0,29.70,West,268,4.0,13.0,88,0.04,,,2.40,,2013-04-19 02:42:00,
2013-04-18 22:52:00,45.0,42.0,29.70,West,268,4.0,13.0,88,0.04,,,2.40,,2013-04-19 02:52:00,
2013-04-18 23:01:00,45.0,42.0,29.70,West,268,4.0,13.0,88,0.04,,,2.40,,2013-04-19 03:01:00,
2013-04-18 23:11:00,45.0,40.0,29.69,West,262,7.0,17.0,84,0.03,,,2.41,,2013-04-19 03:11:00,
2013-04-18 23:21:00,45.0,40.0,29.69,West,262,7.0,17.0,84,0.03,,,2.41,,2013-04-19 03:21:00,
2013-04-18 23:32:00,45.0,40.0,29.69,West,262,7.0,17.0,84,0.03,,,2.41,,2013-04-19 03:32:00,
2013-04-18 23:43:00,45.0,40.0,29.66,WSW,252,8.0,15.0,82,0.01,,,2.41,,2013-04-19 03:43:00,
2013-04-18 23:53:00,45.0,40.0,29.66,WSW,252,8.0,15.0,82,0.01,,,2.41,,2013-04-19 03:53:00,